createdAt,value
2023-04-15T00:01:53.686Z,99.90
2023-04-15T00:04:20.827Z,99.90
2023-04-15T00:06:55.304Z,99.90
2023-04-15T00:09:22.261Z,99.90
2023-04-15T00:11:50.667Z,99.90
2023-04-15T00:14:17.478Z,99.90
2023-04-15T00:16:44.559Z,99.90
2023-04-15T00:19:12.297Z,99.90
2023-04-15T00:21:39.036Z,99.90
2023-04-15T00:24:06.468Z,99.90
2023-04-15T00:26:33.252Z,99.90
2023-04-15T00:29:00.574Z,99.90
2023-04-15T00:31:27.858Z,99.90
2023-04-15T00:33:54.755Z,99.90
2023-04-15T00:36:22.336Z,99.90
2023-04-15T00:38:50.720Z,99.90
2023-04-15T00:41:19.221Z,99.90
2023-04-15T00:43:46.599Z,99.90
2023-04-15T00:46:16.001Z,99.90
2023-04-15T00:48:44.153Z,99.90
2023-04-15T00:51:11.298Z,99.90
2023-04-15T00:53:38.046Z,99.90
2023-04-15T00:56:06.684Z,99.90
2023-04-15T00:58:33.555Z,99.90
2023-04-15T01:01:01.187Z,99.90
2023-04-15T01:03:32.220Z,99.90
2023-04-15T01:06:03.392Z,99.90
2023-04-15T01:08:31.756Z,99.90
2023-04-15T01:11:03.523Z,99.90
2023-04-15T01:13:31.255Z,99.90
2023-04-15T01:15:58.291Z,99.90
2023-04-15T01:18:25.621Z,99.90
2023-04-15T01:20:52.373Z,99.90
2023-04-15T01:23:19.262Z,99.90
2023-04-15T01:25:47.586Z,99.90
2023-04-15T01:28:14.505Z,99.90
2023-04-15T01:30:41.477Z,99.90
2023-04-15T01:33:08.576Z,99.90
2023-04-15T01:35:35.496Z,99.90
2023-04-15T01:38:06.569Z,99.90
2023-04-15T01:40:36.721Z,99.90
2023-04-15T01:43:03.937Z,99.90
2023-04-15T01:45:31.268Z,99.90
2023-04-15T01:47:58.153Z,99.90
2023-04-15T01:50:26.191Z,99.90
2023-04-15T01:52:55.499Z,99.90
2023-04-15T01:55:22.374Z,99.90
2023-04-15T01:57:49.258Z,99.90
2023-04-15T02:00:17.658Z,99.90
2023-04-15T02:02:44.907Z,99.90
2023-04-15T02:05:12.075Z,99.90
2023-04-15T02:07:38.833Z,99.90
2023-04-15T02:10:05.898Z,99.90
2023-04-15T02:12:35.747Z,99.90
2023-04-15T02:15:02.616Z,99.90
2023-04-15T02:17:29.505Z,99.90
2023-04-15T02:19:56.891Z,99.90
2023-04-15T02:22:24.909Z,99.90
2023-04-15T02:24:51.857Z,99.90
2023-04-15T02:27:18.889Z,99.90
2023-04-15T02:29:46.231Z,99.90
2023-04-15T02:32:13.877Z,99.90
2023-04-15T02:34:42.658Z,99.90
2023-04-15T02:37:11.413Z,99.90
2023-04-15T02:39:38.344Z,99.90
2023-04-15T02:42:06.184Z,99.90
2023-04-15T02:44:35.275Z,99.90
2023-04-15T02:47:05.108Z,99.90
2023-04-15T02:49:32.469Z,99.90
2023-04-15T02:52:00.775Z,99.90
2023-04-15T02:54:30.626Z,99.90
2023-04-15T02:56:58.101Z,99.90
2023-04-15T02:59:25.059Z,99.90
2023-04-15T03:01:51.914Z,99.90
2023-04-15T03:04:18.893Z,99.90
2023-04-15T03:06:47.006Z,99.90
2023-04-15T03:09:13.919Z,99.90
2023-04-15T03:11:42.147Z,99.90
2023-04-15T03:14:11.333Z,99.90
2023-04-15T03:16:42.584Z,99.90
2023-04-15T03:19:09.727Z,99.90
2023-04-15T03:21:40.473Z,99.90
2023-04-15T03:24:08.665Z,99.90
2023-04-15T03:26:35.701Z,99.90
2023-04-15T03:29:08.992Z,99.90
2023-04-15T03:31:35.873Z,99.90
2023-04-15T03:34:02.755Z,99.90
2023-04-15T03:36:32.139Z,99.90
2023-04-15T03:38:59.916Z,99.90
2023-04-15T03:41:26.791Z,99.90
2023-04-15T03:43:53.986Z,99.90
2023-04-15T03:46:21.414Z,99.90
2023-04-15T03:48:48.620Z,99.90
2023-04-15T03:51:15.501Z,99.90
2023-04-15T03:53:42.340Z,99.90
2023-04-15T03:56:09.166Z,99.90
2023-04-15T03:58:36.004Z,99.90
2023-04-15T04:01:02.830Z,99.90
2023-04-15T04:03:30.376Z,99.90
2023-04-15T04:05:57.355Z,99.90
2023-04-15T04:08:24.310Z,99.90
2023-04-15T04:10:51.211Z,99.90
2023-04-15T04:13:18.206Z,99.90
2023-04-15T04:15:45.263Z,99.90
2023-04-15T04:18:12.476Z,99.90
2023-04-15T04:20:39.447Z,99.90
2023-04-15T04:23:06.556Z,99.90
2023-04-15T04:25:33.465Z,99.90
2023-04-15T04:28:00.325Z,99.90
2023-04-15T04:30:27.174Z,99.90
2023-04-15T04:32:54.160Z,99.90
2023-04-15T04:35:21.919Z,99.90
2023-04-15T04:37:48.942Z,99.90
2023-04-15T04:40:16.228Z,99.90
2023-04-15T04:42:43.478Z,99.90
2023-04-15T04:45:10.795Z,99.90
2023-04-15T04:47:37.808Z,99.90
2023-04-15T04:50:05.033Z,99.90
2023-04-15T04:52:32.003Z,99.90
2023-04-15T04:54:58.907Z,99.90
2023-04-15T04:57:25.685Z,99.90
2023-04-15T04:59:52.628Z,99.90
2023-04-15T05:02:19.703Z,99.90
2023-04-15T05:04:49.748Z,99.90
2023-04-15T05:07:17.177Z,99.90
2023-04-15T05:09:43.914Z,99.90
2023-04-15T05:12:15.035Z,99.90
2023-04-15T05:14:42.511Z,99.90
2023-04-15T05:17:09.439Z,99.90
2023-04-15T05:19:36.740Z,99.90
2023-04-15T05:22:03.889Z,99.90
2023-04-15T05:24:31.041Z,99.90
2023-04-15T05:26:57.936Z,99.90
2023-04-15T05:29:24.706Z,99.90
2023-04-15T05:31:52.102Z,99.90
2023-04-15T05:34:19.904Z,99.90
2023-04-15T05:36:47.199Z,99.90
2023-04-15T05:39:14.046Z,99.90
2023-04-15T05:41:41.001Z,99.90
2023-04-15T05:44:07.929Z,99.90
2023-04-15T05:46:34.748Z,99.90
2023-04-15T05:49:02.037Z,99.90
2023-04-15T05:51:29.053Z,99.90
2023-04-15T05:53:55.830Z,99.90
2023-04-15T05:56:22.714Z,99.90
2023-04-15T05:58:50.578Z,99.90
2023-04-15T06:01:19.340Z,99.90
2023-04-15T06:03:46.919Z,99.90
2023-04-15T06:06:14.417Z,99.90
2023-04-15T06:08:41.586Z,99.90
2023-04-15T06:11:08.568Z,99.90
2023-04-15T06:13:37.762Z,99.90
2023-04-15T06:16:04.841Z,99.90
2023-04-15T06:18:31.632Z,99.90
2023-04-15T06:20:58.531Z,99.90
2023-04-15T06:23:26.932Z,99.90
2023-04-15T06:25:54.810Z,99.90
2023-04-15T06:28:21.820Z,99.90
2023-04-15T06:30:48.696Z,99.90
2023-04-15T06:33:15.986Z,99.90
2023-04-15T06:35:43.088Z,99.90
2023-04-15T06:38:09.859Z,99.90
2023-04-15T06:40:36.816Z,99.90
2023-04-15T06:43:04.852Z,99.90
2023-04-15T06:45:32.413Z,99.90
2023-04-15T06:47:59.541Z,99.90
2023-04-15T06:50:26.539Z,99.90
2023-04-15T06:52:54.596Z,99.90
2023-04-15T06:55:21.476Z,99.90
2023-04-15T06:57:48.590Z,99.90
2023-04-15T07:00:15.695Z,99.90
2023-04-15T07:02:42.708Z,99.90
2023-04-15T07:05:10.053Z,99.90
2023-04-15T07:07:37.517Z,99.90
2023-04-15T07:10:05.419Z,99.90
2023-04-15T07:12:32.487Z,99.90
2023-04-15T07:14:59.724Z,99.90
2023-04-15T07:17:27.217Z,99.90
2023-04-15T07:19:54.257Z,99.90
2023-04-15T07:22:21.034Z,99.90
2023-04-15T07:24:47.873Z,99.90
2023-04-15T07:27:14.803Z,99.90
2023-04-15T07:29:42.174Z,99.90
2023-04-15T07:32:10.498Z,99.90
2023-04-15T07:34:38.033Z,99.90
2023-04-15T07:37:04.980Z,99.90
2023-04-15T07:39:31.750Z,99.90
2023-04-15T07:41:59.218Z,99.90
2023-04-15T07:44:27.444Z,99.90
2023-04-15T07:46:54.674Z,99.90
2023-04-15T07:49:21.592Z,99.90
2023-04-15T07:51:49.154Z,99.90
2023-04-15T07:54:16.291Z,99.90
2023-04-15T07:56:43.087Z,99.90
2023-04-15T07:59:10.437Z,99.90
2023-04-15T08:01:37.773Z,99.90
2023-04-15T08:04:04.738Z,99.90
2023-04-15T08:06:31.598Z,99.90
2023-04-15T08:08:58.419Z,99.90
2023-04-15T08:11:25.512Z,99.90
2023-04-15T08:13:52.772Z,99.90
2023-04-15T08:16:27.868Z,99.90
2023-04-15T08:18:56.423Z,99.90
2023-04-15T08:21:23.958Z,99.90
2023-04-15T08:23:52.417Z,99.90
2023-04-15T08:26:21.103Z,99.90
2023-04-15T08:28:48.869Z,99.90
2023-04-15T08:31:16.930Z,99.90
2023-04-15T08:33:43.886Z,99.90
2023-04-15T08:36:10.747Z,99.90
2023-04-15T08:38:38.091Z,99.90
2023-04-15T08:41:13.268Z,99.90
2023-04-15T08:43:48.580Z,99.90
2023-04-15T08:46:16.590Z,99.90
2023-04-15T08:48:44.728Z,99.90
2023-04-15T08:51:11.730Z,99.90
2023-04-15T08:53:38.744Z,99.90
2023-04-15T08:56:10.094Z,99.90
2023-04-15T08:58:38.099Z,99.30
2023-04-15T09:01:05.075Z,98.00
2023-04-15T09:03:32.514Z,98.60
2023-04-15T09:05:59.977Z,96.70
2023-04-15T09:08:26.992Z,92.80
2023-04-15T09:10:54.583Z,92.80
2023-04-15T09:13:21.995Z,93.20
2023-04-15T09:15:49.197Z,93.30
2023-04-15T09:18:29.272Z,93.80
2023-04-15T09:20:56.657Z,93.70
2023-04-15T09:23:23.572Z,90.60
2023-04-15T09:25:51.195Z,85.80
2023-04-15T09:28:25.656Z,88.00
2023-04-15T09:30:56.710Z,90.30
2023-04-15T09:33:24.821Z,88.90
2023-04-15T09:35:59.451Z,88.60
2023-04-15T09:38:26.661Z,90.20
2023-04-15T09:40:53.537Z,90.20
2023-04-15T09:43:20.965Z,87.50
2023-04-15T09:45:53.232Z,89.40
2023-04-15T09:48:22.839Z,91.20
2023-04-15T09:50:50.360Z,92.30
2023-04-15T09:53:19.378Z,93.70
2023-04-15T09:55:59.048Z,95.00
2023-04-15T09:58:33.805Z,93.10
2023-04-15T10:01:03.045Z,91.40
2023-04-15T10:03:32.373Z,93.20
2023-04-15T10:06:00.995Z,91.60
2023-04-15T10:08:33.189Z,91.60
2023-04-15T10:11:05.058Z,90.50
2023-04-15T10:13:37.237Z,91.20
2023-04-15T10:16:11.296Z,92.20
2023-04-15T10:19:02.497Z,90.80
2023-04-15T10:21:30.813Z,91.30
2023-04-15T10:23:58.925Z,89.20
2023-04-15T10:26:26.612Z,90.40
2023-04-15T10:28:53.731Z,90.50
2023-04-15T10:31:21.626Z,88.30
2023-04-15T10:33:49.828Z,89.00
2023-04-15T10:36:18.905Z,91.80
2023-04-15T10:38:46.819Z,91.40
2023-04-15T10:41:24.895Z,91.00
2023-04-15T10:44:05.764Z,90.70
2023-04-15T10:46:45.971Z,91.70
2023-04-15T10:49:17.794Z,92.50
2023-04-15T10:51:50.960Z,92.50
2023-04-15T10:54:31.087Z,92.40
2023-04-15T10:57:03.566Z,91.50
2023-04-15T10:59:36.189Z,90.80
2023-04-15T11:02:05.953Z,92.30
2023-04-15T11:04:51.867Z,93.10
2023-04-15T11:07:40.062Z,93.60
2023-04-15T11:10:26.130Z,95.20
2023-04-15T11:12:56.964Z,94.40
2023-04-15T11:15:31.127Z,93.50
2023-04-15T11:17:59.923Z,92.90
2023-04-15T11:20:27.230Z,93.50
2023-04-15T11:23:12.140Z,94.20
2023-04-15T11:25:43.290Z,93.90
2023-04-15T11:28:12.244Z,93.40
2023-04-15T11:30:40.242Z,93.90
2023-04-15T11:33:09.594Z,96.10
2023-04-15T11:35:36.781Z,94.90
2023-04-15T11:38:12.089Z,93.80
2023-04-15T11:40:39.622Z,92.90
2023-04-15T11:43:10.270Z,95.20
2023-04-15T11:45:47.893Z,93.40
2023-04-15T11:48:14.744Z,92.90
2023-04-15T11:50:41.664Z,93.80
2023-04-15T11:53:11.659Z,93.20
2023-04-15T11:55:48.904Z,92.80
2023-04-15T11:58:18.563Z,92.60
2023-04-15T12:00:54.015Z,94.40
2023-04-15T12:03:23.847Z,92.00
2023-04-15T12:06:20.881Z,92.90
2023-04-15T12:09:13.418Z,92.00
2023-04-15T12:11:45.876Z,91.30
2023-04-15T12:14:34.686Z,93.90
2023-04-15T12:17:03.640Z,92.50
2023-04-15T12:19:42.163Z,92.30
2023-04-15T12:22:14.155Z,90.60
2023-04-15T12:24:44.247Z,91.20
2023-04-15T12:27:12.825Z,91.10
2023-04-15T12:29:41.119Z,91.40
2023-04-15T12:32:12.350Z,93.00
2023-04-15T12:34:45.130Z,93.80
2023-04-15T12:37:14.218Z,94.10
2023-04-15T12:39:44.616Z,94.30
2023-04-15T12:42:12.390Z,94.80
2023-04-15T12:44:40.118Z,95.00
2023-04-15T12:47:08.174Z,95.30
2023-04-15T12:49:35.142Z,95.80
2023-04-15T12:52:03.234Z,96.40
2023-04-15T12:54:33.031Z,97.00
2023-04-15T12:57:00.915Z,96.60
2023-04-15T12:59:28.228Z,97.00
2023-04-15T13:01:55.627Z,97.60
2023-04-15T13:04:23.046Z,96.70
2023-04-15T13:06:50.508Z,96.20
2023-04-15T13:09:17.376Z,96.70
2023-04-15T13:11:44.310Z,96.30
2023-04-15T13:14:13.089Z,96.80
2023-04-15T13:16:40.318Z,96.40
2023-04-15T13:19:07.479Z,95.50
2023-04-15T13:21:35.785Z,96.90
2023-04-15T13:24:04.549Z,95.80
2023-04-15T13:26:32.097Z,96.60
2023-04-15T13:28:59.506Z,95.20
2023-04-15T13:31:27.096Z,96.30
2023-04-15T13:33:54.101Z,96.50
2023-04-15T13:36:21.132Z,96.10
2023-04-15T13:38:50.960Z,95.90
2023-04-15T13:41:18.462Z,96.20
2023-04-15T13:43:45.691Z,97.50
2023-04-15T13:46:12.890Z,94.60
2023-04-15T13:48:39.772Z,95.60
2023-04-15T13:51:06.656Z,95.20
2023-04-15T13:53:38.213Z,95.80
2023-04-15T13:56:09.256Z,98.60
2023-04-15T13:58:37.481Z,99.90
2023-04-15T14:01:06.146Z,99.90
2023-04-15T14:03:34.980Z,99.90
2023-04-15T14:06:02.314Z,99.90
2023-04-15T14:08:31.080Z,99.90
2023-04-15T14:10:57.975Z,99.90
2023-04-15T14:13:25.116Z,99.90
2023-04-15T14:15:51.915Z,99.90
2023-04-15T14:18:18.862Z,99.90
2023-04-15T14:20:46.207Z,99.90
2023-04-15T14:23:13.083Z,99.90
2023-04-15T14:25:40.383Z,99.90
2023-04-15T14:28:07.248Z,99.90
2023-04-15T14:30:34.217Z,99.90
2023-04-15T14:33:01.202Z,99.90
2023-04-15T14:35:29.123Z,99.90
2023-04-15T14:37:56.302Z,99.90
2023-04-15T14:40:23.628Z,99.90
2023-04-15T14:42:50.633Z,99.90
2023-04-15T14:45:17.912Z,99.90
2023-04-15T14:47:45.095Z,97.80
2023-04-15T14:50:12.834Z,97.40
2023-04-15T14:52:40.069Z,96.80
2023-04-15T14:55:10.820Z,97.10
2023-04-15T14:57:38.680Z,95.80
2023-04-15T15:00:07.306Z,95.10
2023-04-15T15:02:39.183Z,94.80
2023-04-15T15:05:07.602Z,93.10
2023-04-15T15:07:36.051Z,92.30
2023-04-15T15:10:02.949Z,91.70
2023-04-15T15:12:29.734Z,92.80
2023-04-15T15:14:56.758Z,94.50
2023-04-15T15:17:24.059Z,93.10
2023-04-15T15:19:51.114Z,93.30
2023-04-15T15:22:20.149Z,93.50
2023-04-15T15:24:48.541Z,95.10
2023-04-15T15:27:15.784Z,94.60
2023-04-15T15:29:42.758Z,94.80
2023-04-15T15:32:12.765Z,95.20
2023-04-15T15:34:39.714Z,96.10
2023-04-15T15:37:07.163Z,96.40
2023-04-15T15:39:36.057Z,97.10
2023-04-15T15:42:03.059Z,97.20
2023-04-15T15:44:29.899Z,97.60
2023-04-15T15:46:56.854Z,97.40
2023-04-15T15:49:25.888Z,97.70
2023-04-15T15:51:52.736Z,97.70
2023-04-15T15:54:19.717Z,98.90
2023-04-15T15:56:46.456Z,99.00
2023-04-15T15:59:13.741Z,99.70
2023-04-15T16:01:40.630Z,99.90
2023-04-15T16:04:07.698Z,99.90
2023-04-15T16:06:35.322Z,99.90
2023-04-15T16:09:02.513Z,99.90
2023-04-15T16:11:30.242Z,99.90
2023-04-15T16:13:57.515Z,99.90
2023-04-15T16:16:24.651Z,99.90
2023-04-15T16:18:51.552Z,99.90
2023-04-15T16:21:19.514Z,99.90
2023-04-15T16:23:46.775Z,99.90
2023-04-15T16:26:15.056Z,99.90
2023-04-15T16:28:41.980Z,99.90
2023-04-15T16:31:10.835Z,99.90
2023-04-15T16:33:42.002Z,99.90
2023-04-15T16:36:08.743Z,99.90
2023-04-15T16:38:35.643Z,99.90
2023-04-15T16:41:02.551Z,99.90
2023-04-15T16:43:30.099Z,99.90
2023-04-15T16:45:56.978Z,99.90
2023-04-15T16:48:23.912Z,99.90
2023-04-15T16:50:50.948Z,99.90
2023-04-15T16:53:17.891Z,99.90
2023-04-15T16:55:44.640Z,99.90
2023-04-15T16:58:11.566Z,99.90
2023-04-15T17:00:38.467Z,99.90
2023-04-15T17:03:06.242Z,99.90
2023-04-15T17:05:33.564Z,99.90
2023-04-15T17:08:00.621Z,99.90
2023-04-15T17:10:28.057Z,99.90
2023-04-15T17:12:59.094Z,99.90
2023-04-15T17:15:27.242Z,99.90
2023-04-15T17:17:54.502Z,99.90
2023-04-15T17:20:21.736Z,99.90
2023-04-15T17:22:49.085Z,99.90
2023-04-15T17:25:16.127Z,99.90
2023-04-15T17:27:43.022Z,99.90
2023-04-15T17:30:10.089Z,99.90
2023-04-15T17:32:40.329Z,99.90
2023-04-15T17:35:07.793Z,99.90
2023-04-15T17:37:34.654Z,99.90
2023-04-15T17:40:02.278Z,99.90
2023-04-15T17:42:29.178Z,99.90
2023-04-15T17:44:56.040Z,99.90
2023-04-15T17:47:23.194Z,99.90
2023-04-15T17:49:50.046Z,99.90
2023-04-15T17:52:16.843Z,99.90
2023-04-15T17:54:43.677Z,99.90
2023-04-15T17:57:10.769Z,99.90
2023-04-15T17:59:37.890Z,99.90
2023-04-15T18:02:04.845Z,99.90
2023-04-15T18:04:31.815Z,99.90
2023-04-15T18:06:58.892Z,99.90
2023-04-15T18:09:26.887Z,99.90
2023-04-15T18:11:53.649Z,99.90
2023-04-15T18:14:33.370Z,99.90
2023-04-15T18:17:01.500Z,99.90
2023-04-15T18:19:28.389Z,99.90
2023-04-15T18:21:56.308Z,99.90
2023-04-15T18:24:23.242Z,99.90
2023-04-15T18:26:52.727Z,99.90
2023-04-15T18:29:19.682Z,99.90
2023-04-15T18:31:46.469Z,99.90
2023-04-15T18:34:13.647Z,99.90
2023-04-15T18:36:40.432Z,99.90
2023-04-15T18:39:07.407Z,99.90
2023-04-15T18:41:34.512Z,99.90
2023-04-15T18:44:01.607Z,99.90
2023-04-15T18:46:29.050Z,99.90
2023-04-15T18:48:55.874Z,99.90
2023-04-15T18:51:22.725Z,99.90
2023-04-15T18:53:49.542Z,99.90
2023-04-15T18:56:16.512Z,99.90
2023-04-15T18:59:19.417Z,99.90
2023-04-15T19:01:32.033Z,99.90
2023-04-15T19:03:59.473Z,99.90
2023-04-15T19:06:27.241Z,99.90
2023-04-15T19:08:55.109Z,99.90
2023-04-15T19:11:21.981Z,99.90
2023-04-15T19:13:49.094Z,99.90
2023-04-15T19:16:16.103Z,99.90
2023-04-15T19:18:43.207Z,99.90
2023-04-15T19:21:11.476Z,99.90
2023-04-15T19:23:38.875Z,99.90
2023-04-15T19:26:08.179Z,99.90
2023-04-15T19:28:35.102Z,99.90
2023-04-15T19:31:02.225Z,99.90
2023-04-15T19:33:31.503Z,99.90
2023-04-15T19:36:04.162Z,99.90
2023-04-15T19:38:31.682Z,99.90
2023-04-15T19:40:59.141Z,99.90
2023-04-15T19:43:26.349Z,99.90
2023-04-15T19:45:54.793Z,99.90
2023-04-15T19:48:22.971Z,99.90
2023-04-15T19:50:50.108Z,99.90
2023-04-15T19:53:17.118Z,99.90
2023-04-15T19:55:44.180Z,99.90
2023-04-15T19:58:11.353Z,99.90
2023-04-15T20:00:38.369Z,99.90
2023-04-15T20:03:05.817Z,99.90
2023-04-15T20:05:32.874Z,99.90
2023-04-15T20:08:01.586Z,99.90
2023-04-15T20:10:28.792Z,99.90
2023-04-15T20:12:55.695Z,99.90
2023-04-15T20:15:23.946Z,99.90
2023-04-15T20:17:51.324Z,99.90
2023-04-15T20:20:18.964Z,99.90
2023-04-15T20:22:45.827Z,99.90
2023-04-15T20:25:12.977Z,99.90
2023-04-15T20:27:39.834Z,99.90
2023-04-15T20:30:07.428Z,99.90
2023-04-15T20:32:36.033Z,99.90
2023-04-15T20:35:07.325Z,99.90
2023-04-15T20:37:34.687Z,99.90
2023-04-15T20:40:02.356Z,99.90
2023-04-15T20:42:34.292Z,99.90
2023-04-15T20:45:01.297Z,99.90
2023-04-15T20:47:28.429Z,99.90
2023-04-15T20:49:55.486Z,99.90
2023-04-15T20:52:22.263Z,99.90
2023-04-15T20:54:49.504Z,99.90
2023-04-15T20:57:16.912Z,99.90
2023-04-15T20:59:43.843Z,99.90
2023-04-15T21:02:11.226Z,99.90
2023-04-15T21:04:38.922Z,99.90
2023-04-15T21:07:06.063Z,99.90
2023-04-15T21:09:32.893Z,99.90
2023-04-15T21:12:01.159Z,99.90
2023-04-15T21:14:29.387Z,99.90
2023-04-15T21:16:58.024Z,99.90
2023-04-15T21:19:25.224Z,99.90
2023-04-15T21:21:52.495Z,99.90
2023-04-15T21:24:19.758Z,99.90
2023-04-15T21:26:46.639Z,99.90
2023-04-15T21:29:14.007Z,99.90
2023-04-15T21:31:41.129Z,99.90
2023-04-15T21:34:08.191Z,99.90
2023-04-15T21:36:35.462Z,99.90
2023-04-15T21:39:02.557Z,99.90
2023-04-15T21:41:30.023Z,99.90
2023-04-15T21:43:56.964Z,99.90
2023-04-15T21:46:25.729Z,99.90
2023-04-15T21:49:00.201Z,99.90
2023-04-15T21:51:27.668Z,99.90
2023-04-15T21:53:54.548Z,99.90
2023-04-15T21:56:23.193Z,99.90
2023-04-15T21:58:50.419Z,99.90
2023-04-15T22:01:17.830Z,99.90
2023-04-15T22:03:44.872Z,99.90
2023-04-15T22:06:13.613Z,99.90
2023-04-15T22:08:55.006Z,99.90
2023-04-15T22:11:27.214Z,99.90
2023-04-15T22:13:54.714Z,99.90
2023-04-15T22:16:21.709Z,99.90
2023-04-15T22:18:48.880Z,99.90
2023-04-15T22:21:15.940Z,99.90
2023-04-15T22:23:46.287Z,99.90
2023-04-15T22:26:13.098Z,99.90
2023-04-15T22:28:39.867Z,99.90
2023-04-15T22:31:06.641Z,99.90
2023-04-15T22:33:33.803Z,99.90
2023-04-15T22:36:00.621Z,99.90
2023-04-15T22:38:27.488Z,99.90
2023-04-15T22:40:54.442Z,99.90
2023-04-15T22:43:21.235Z,99.90
2023-04-15T22:45:51.544Z,99.90
2023-04-15T22:48:19.048Z,99.90
2023-04-15T22:50:46.231Z,99.90
2023-04-15T22:53:13.240Z,99.90
2023-04-15T22:55:40.088Z,99.90
2023-04-15T22:58:06.882Z,99.90
2023-04-15T23:00:33.619Z,99.90
2023-04-15T23:03:00.714Z,99.90
2023-04-15T23:05:27.867Z,99.90
2023-04-15T23:07:54.897Z,99.90
2023-04-15T23:10:21.772Z,99.90
2023-04-15T23:12:48.592Z,99.90
2023-04-15T23:15:15.774Z,99.90
2023-04-15T23:17:43.528Z,99.90
2023-04-15T23:20:11.434Z,99.90
2023-04-15T23:22:38.654Z,99.90
2023-04-15T23:25:06.557Z,99.90
2023-04-15T23:27:33.338Z,99.90
2023-04-15T23:30:00.296Z,99.90
2023-04-15T23:32:27.457Z,99.90
2023-04-15T23:34:54.524Z,99.90
2023-04-15T23:37:21.373Z,99.90
2023-04-15T23:39:48.423Z,99.90
2023-04-15T23:42:15.286Z,99.90
2023-04-15T23:44:42.058Z,99.90
2023-04-15T23:47:09.008Z,99.90
2023-04-15T23:49:37.000Z,99.90
2023-04-15T23:52:04.225Z,99.90
2023-04-15T23:54:31.104Z,99.90
2023-04-15T23:56:57.904Z,99.90
2023-04-15T23:59:24.743Z,99.90
